createdAt,value
2017-12-09T00:00:10.384Z,1.60
2017-12-09T00:02:39.292Z,1.50
2017-12-09T00:05:08.132Z,1.60
2017-12-09T00:07:36.296Z,1.50
2017-12-09T00:10:04.387Z,1.50
2017-12-09T00:12:32.464Z,1.50
2017-12-09T00:15:00.557Z,1.50
2017-12-09T00:17:29.440Z,1.40
2017-12-09T00:19:58.317Z,1.30
2017-12-09T00:22:41.031Z,1.30
2017-12-09T00:25:09.950Z,1.40
2017-12-09T00:27:40.498Z,1.40
2017-12-09T00:30:08.591Z,1.40
2017-12-09T00:32:36.672Z,1.40
2017-12-09T00:35:04.772Z,1.30
2017-12-09T00:37:32.858Z,1.40
2017-12-09T00:40:00.964Z,1.40
2017-12-09T00:42:29.049Z,1.40
2017-12-09T00:44:57.160Z,1.40
2017-12-09T00:47:25.237Z,1.30
2017-12-09T00:49:53.331Z,1.40
2017-12-09T00:52:22.186Z,1.30
2017-12-09T00:54:50.279Z,1.30
2017-12-09T00:57:18.360Z,1.20
2017-12-09T00:59:46.457Z,1.20
2017-12-09T01:02:14.559Z,1.20
2017-12-09T01:04:42.693Z,1.10
2017-12-09T01:07:11.547Z,1.10
2017-12-09T01:09:39.688Z,1.10
2017-12-09T01:12:07.770Z,1.10
2017-12-09T01:14:35.847Z,1.10
2017-12-09T01:17:21.887Z,1.00
2017-12-09T01:19:50.770Z,1.00
2017-12-09T01:22:18.848Z,1.00
2017-12-09T01:24:47.712Z,1.00
2017-12-09T01:27:15.805Z,1.00
2017-12-09T01:29:44.654Z,1.00
2017-12-09T01:32:12.735Z,0.90
2017-12-09T01:34:40.821Z,1.00
2017-12-09T01:37:08.913Z,0.90
2017-12-09T01:39:36.990Z,0.90
2017-12-09T01:42:05.069Z,0.90
2017-12-09T01:44:33.936Z,0.90
2017-12-09T01:47:02.045Z,0.90
2017-12-09T01:49:30.897Z,0.90
2017-12-09T01:51:59.002Z,0.90
2017-12-09T01:54:27.856Z,0.90
2017-12-09T01:56:55.946Z,0.90
2017-12-09T01:59:24.044Z,0.90
2017-12-09T02:01:52.883Z,0.90
2017-12-09T02:04:20.989Z,0.90
2017-12-09T02:06:49.844Z,0.90
2017-12-09T02:09:17.949Z,0.90
2017-12-09T02:11:46.026Z,1.00
2017-12-09T02:14:14.123Z,1.00
2017-12-09T02:16:42.204Z,1.00
2017-12-09T02:19:10.328Z,1.00
2017-12-09T02:21:38.431Z,1.00
2017-12-09T02:24:07.283Z,1.00
2017-12-09T02:26:35.372Z,1.00
2017-12-09T02:29:03.462Z,1.00
2017-12-09T02:31:32.328Z,0.80
2017-12-09T02:34:00.426Z,0.80
2017-12-09T02:36:29.312Z,0.80
2017-12-09T02:38:58.173Z,0.70
2017-12-09T02:41:26.275Z,0.70
2017-12-09T02:43:55.127Z,0.70
2017-12-09T02:46:23.229Z,0.70
2017-12-09T02:48:51.304Z,0.70
2017-12-09T02:51:19.380Z,0.60
2017-12-09T02:53:48.240Z,0.70
2017-12-09T02:56:16.336Z,0.60
2017-12-09T02:58:45.212Z,0.50
2017-12-09T03:01:13.325Z,0.50
2017-12-09T03:03:41.419Z,0.50
2017-12-09T03:06:09.496Z,0.50
2017-12-09T03:08:37.606Z,0.50
2017-12-09T03:11:05.699Z,0.50
2017-12-09T03:13:34.585Z,0.50
2017-12-09T03:16:03.428Z,0.50
2017-12-09T03:18:31.507Z,0.50
2017-12-09T03:20:59.585Z,0.50
2017-12-09T03:23:27.677Z,0.60
2017-12-09T03:25:55.778Z,0.60
2017-12-09T03:28:24.620Z,0.60
2017-12-09T03:30:52.725Z,0.60
2017-12-09T03:33:20.808Z,0.60
2017-12-09T03:35:49.676Z,0.60
2017-12-09T03:38:17.757Z,0.60
2017-12-09T03:40:45.881Z,0.70
2017-12-09T03:43:13.953Z,0.70
2017-12-09T03:45:42.069Z,0.70
2017-12-09T03:48:10.147Z,0.70
2017-12-09T03:50:38.280Z,0.80
2017-12-09T03:53:06.369Z,0.70
2017-12-09T03:55:34.442Z,0.70
2017-12-09T03:58:02.542Z,0.70
2017-12-09T04:00:30.636Z,0.80
2017-12-09T04:02:59.500Z,0.80
2017-12-09T04:05:27.578Z,0.80
2017-12-09T04:07:55.671Z,0.70
2017-12-09T04:10:23.770Z,0.70
2017-12-09T04:12:51.888Z,0.70
2017-12-09T04:15:19.996Z,0.80
2017-12-09T04:17:48.103Z,0.80
2017-12-09T04:20:16.192Z,0.80
2017-12-09T04:22:44.277Z,0.70
2017-12-09T04:25:12.611Z,0.80
2017-12-09T04:27:40.708Z,0.80
2017-12-09T04:30:08.789Z,0.80
2017-12-09T04:32:36.893Z,0.80
2017-12-09T04:35:05.753Z,0.80
2017-12-09T04:37:33.847Z,0.80
2017-12-09T04:40:01.907Z,0.90
2017-12-09T04:42:30.006Z,0.90
2017-12-09T04:44:58.866Z,0.90
2017-12-09T04:47:26.942Z,0.90
2017-12-09T04:49:55.055Z,0.90
2017-12-09T04:52:23.144Z,0.90
2017-12-09T04:54:51.245Z,0.90
2017-12-09T04:57:19.344Z,0.90
2017-12-09T04:59:47.442Z,0.90
2017-12-09T05:02:16.279Z,1.00
2017-12-09T05:04:44.379Z,0.90
2017-12-09T05:07:12.468Z,1.00
2017-12-09T05:09:41.341Z,0.90
2017-12-09T05:12:09.420Z,0.90
2017-12-09T05:14:37.536Z,1.00
2017-12-09T05:17:05.626Z,1.00
2017-12-09T05:19:33.760Z,1.00
2017-12-09T05:22:02.619Z,1.00
2017-12-09T05:24:30.715Z,1.00
2017-12-09T05:26:59.564Z,1.00
2017-12-09T05:29:27.665Z,1.00
2017-12-09T05:31:55.755Z,1.10
2017-12-09T05:34:24.667Z,1.00
2017-12-09T05:36:52.755Z,1.00
2017-12-09T05:39:20.864Z,1.10
2017-12-09T05:41:48.943Z,1.10
2017-12-09T05:44:17.066Z,1.10
2017-12-09T05:46:45.169Z,1.10
2017-12-09T05:49:13.249Z,1.10
2017-12-09T05:51:41.370Z,1.10
2017-12-09T05:54:09.456Z,1.10
2017-12-09T05:56:37.556Z,1.00
2017-12-09T05:59:05.634Z,1.10
2017-12-09T06:01:33.728Z,1.10
2017-12-09T06:04:01.845Z,1.10
2017-12-09T06:06:29.953Z,1.10
2017-12-09T06:08:58.045Z,1.10
2017-12-09T06:11:26.128Z,1.10
2017-12-09T06:13:54.985Z,1.10
2017-12-09T06:16:23.084Z,1.10
2017-12-09T06:18:51.194Z,1.10
2017-12-09T06:21:19.305Z,1.10
2017-12-09T06:23:47.377Z,1.10
2017-12-09T06:26:15.478Z,1.10
2017-12-09T06:28:44.354Z,1.10
2017-12-09T06:31:12.448Z,1.10
2017-12-09T06:33:41.295Z,1.10
2017-12-09T06:36:09.405Z,1.10
2017-12-09T06:38:38.269Z,1.20
2017-12-09T06:41:06.376Z,1.20
2017-12-09T06:43:35.247Z,1.10
2017-12-09T06:46:03.323Z,1.10
2017-12-09T06:48:31.416Z,1.10
2017-12-09T06:51:00.277Z,1.10
2017-12-09T06:53:28.376Z,1.10
2017-12-09T06:55:57.228Z,1.00
2017-12-09T06:58:25.325Z,1.00
2017-12-09T07:00:53.432Z,1.10
2017-12-09T07:03:21.533Z,1.00
2017-12-09T07:05:49.635Z,1.00
2017-12-09T07:08:17.721Z,1.00
2017-12-09T07:10:46.584Z,1.10
2017-12-09T07:13:14.686Z,1.00
2017-12-09T07:15:42.813Z,1.10
2017-12-09T07:18:10.926Z,1.10
2017-12-09T07:20:39.013Z,1.00
2017-12-09T07:23:07.892Z,1.00
2017-12-09T07:25:35.966Z,1.00
2017-12-09T07:28:04.074Z,1.00
2017-12-09T07:30:32.151Z,0.90
2017-12-09T07:33:00.255Z,1.00
2017-12-09T07:35:28.348Z,1.10
2017-12-09T07:37:57.240Z,1.10
2017-12-09T07:40:25.311Z,1.10
2017-12-09T07:42:53.408Z,1.00
2017-12-09T07:45:22.264Z,1.00
2017-12-09T07:47:50.357Z,1.00
2017-12-09T07:50:19.278Z,1.00
2017-12-09T07:52:47.365Z,1.00
2017-12-09T07:55:15.482Z,1.00
2017-12-09T07:57:43.581Z,1.00
2017-12-09T08:00:12.519Z,1.00
2017-12-09T08:02:40.604Z,0.90
2017-12-09T08:05:08.718Z,0.90
2017-12-09T08:07:37.556Z,0.90
2017-12-09T08:10:05.662Z,0.90
2017-12-09T08:12:33.738Z,0.90
2017-12-09T08:15:01.829Z,0.90
2017-12-09T08:17:29.928Z,0.90
2017-12-09T08:19:58.037Z,1.00
2017-12-09T08:22:26.117Z,1.00
2017-12-09T08:24:54.226Z,1.00
2017-12-09T08:27:23.073Z,1.10
2017-12-09T08:29:51.162Z,1.10
2017-12-09T08:32:19.246Z,1.20
2017-12-09T08:34:48.132Z,1.20
2017-12-09T08:37:17.006Z,1.20
2017-12-09T08:39:45.138Z,1.20
2017-12-09T08:42:13.978Z,1.20
2017-12-09T08:44:42.078Z,1.20
2017-12-09T08:47:10.945Z,1.20
2017-12-09T08:49:39.016Z,1.20
2017-12-09T08:52:07.105Z,1.20
2017-12-09T08:54:35.971Z,1.30
2017-12-09T08:57:04.080Z,1.30
2017-12-09T08:59:32.148Z,1.20
2017-12-09T09:02:00.254Z,1.30
2017-12-09T09:04:28.350Z,1.20
2017-12-09T09:06:56.444Z,1.20
2017-12-09T09:09:25.324Z,1.20
2017-12-09T09:11:53.428Z,1.20
2017-12-09T09:14:22.273Z,1.20
2017-12-09T09:16:50.368Z,1.20
2017-12-09T09:19:18.448Z,1.20
2017-12-09T09:21:46.560Z,1.30
2017-12-09T09:24:14.661Z,1.30
2017-12-09T09:26:42.756Z,1.30
2017-12-09T09:29:10.834Z,1.30
2017-12-09T09:31:38.924Z,1.40
2017-12-09T09:34:07.791Z,1.30
2017-12-09T09:36:35.871Z,1.30
2017-12-09T09:39:04.748Z,1.30
2017-12-09T09:41:32.856Z,1.30
2017-12-09T09:44:01.722Z,1.20
2017-12-09T09:46:29.813Z,1.20
2017-12-09T09:48:58.684Z,1.20
2017-12-09T09:51:26.823Z,1.20
2017-12-09T09:53:54.920Z,1.20
2017-12-09T09:56:23.011Z,1.30
2017-12-09T09:58:51.866Z,1.50
2017-12-09T10:01:19.965Z,1.50
2017-12-09T10:03:48.070Z,1.50
2017-12-09T10:06:16.180Z,1.50
2017-12-09T10:08:44.278Z,1.50
2017-12-09T10:11:12.400Z,1.50
2017-12-09T10:13:40.491Z,1.50
2017-12-09T10:16:08.575Z,1.40
2017-12-09T10:18:36.665Z,1.40
2017-12-09T10:21:04.748Z,1.40
2017-12-09T10:23:33.625Z,1.40
2017-12-09T10:26:01.731Z,1.40
2017-12-09T10:28:30.582Z,1.40
2017-12-09T10:30:58.652Z,1.50
2017-12-09T10:33:26.762Z,1.40
2017-12-09T10:35:55.618Z,1.40
2017-12-09T10:38:23.712Z,1.40
2017-12-09T10:40:51.809Z,1.40
2017-12-09T10:43:20.664Z,1.40
2017-12-09T10:45:48.762Z,1.40
2017-12-09T10:48:17.646Z,1.40
2017-12-09T10:50:46.517Z,1.50
2017-12-09T10:53:14.608Z,1.50
2017-12-09T10:55:43.496Z,1.50
2017-12-09T10:58:12.359Z,1.50
2017-12-09T11:00:40.450Z,1.50
2017-12-09T11:03:09.324Z,1.40
2017-12-09T11:05:37.445Z,1.40
2017-12-09T11:08:06.285Z,1.40
2017-12-09T11:10:34.376Z,1.40
2017-12-09T11:13:03.243Z,1.50
2017-12-09T11:15:31.320Z,1.50
2017-12-09T11:17:59.407Z,1.50
2017-12-09T11:20:27.519Z,1.50
2017-12-09T11:22:56.376Z,1.50
2017-12-09T11:25:24.504Z,1.50
2017-12-09T11:27:52.596Z,1.50
2017-12-09T11:30:20.709Z,1.50
2017-12-09T11:32:49.555Z,1.40
2017-12-09T11:35:17.678Z,1.40
2017-12-09T11:37:46.536Z,1.30
2017-12-09T11:40:14.622Z,1.30
2017-12-09T11:42:42.754Z,1.40
2017-12-09T11:45:10.835Z,1.40
2017-12-09T11:47:38.927Z,1.40
2017-12-09T11:50:07.033Z,1.50
2017-12-09T11:52:35.141Z,1.50
2017-12-09T11:55:03.234Z,1.40
2017-12-09T11:57:31.336Z,1.40
2017-12-09T11:59:59.443Z,1.40
2017-12-09T12:02:27.635Z,1.50
2017-12-09T12:04:55.748Z,1.60
2017-12-09T12:07:23.833Z,1.60
2017-12-09T12:09:52.706Z,1.50
2017-12-09T12:12:20.809Z,1.50
2017-12-09T12:14:50.685Z,1.60
2017-12-09T12:17:18.794Z,1.70
2017-12-09T12:19:47.664Z,1.70
2017-12-09T12:22:15.813Z,1.70
2017-12-09T12:24:43.902Z,1.70
2017-12-09T12:27:12.154Z,1.60
2017-12-09T12:41:51.911Z,1.80
2017-12-09T12:47:24.279Z,1.70
2017-12-09T13:05:47.019Z,1.70
2017-12-09T13:13:54.468Z,1.60
2017-12-09T13:16:32.545Z,1.60
2017-12-09T13:19:00.664Z,1.60
2017-12-09T13:21:29.677Z,1.50
2017-12-09T13:23:59.736Z,1.50
2017-12-09T13:26:28.516Z,1.40
2017-12-09T13:28:59.299Z,1.50
2017-12-09T13:31:29.147Z,1.40
2017-12-09T13:34:14.262Z,1.80
2017-12-09T13:36:56.447Z,1.80
2017-12-09T13:41:06.488Z,2.00
2017-12-09T13:43:38.564Z,2.10
2017-12-09T13:46:27.959Z,2.30
2017-12-09T14:34:15.052Z,1.00
2017-12-09T14:36:56.699Z,1.00
2017-12-09T14:39:52.637Z,0.80
2017-12-09T14:48:35.507Z,0.80
2017-12-09T14:51:25.091Z,0.80
2017-12-09T14:54:30.624Z,0.80
2017-12-09T14:57:30.736Z,0.70
2017-12-09T15:08:56.975Z,0.80
2017-12-09T15:11:35.737Z,0.70
2017-12-09T15:14:15.255Z,0.60
2017-12-09T15:16:52.163Z,0.60
2017-12-09T15:19:34.342Z,0.60
2017-12-09T15:24:51.400Z,0.60
2017-12-09T15:27:31.402Z,0.70
2017-12-09T15:30:09.387Z,0.70
2017-12-09T15:32:52.106Z,-0.20
2017-12-09T15:38:27.053Z,0.70
2017-12-09T15:41:08.381Z,0.70
2017-12-09T15:43:41.852Z,0.70
2017-12-09T15:46:16.724Z,0.70
2017-12-09T15:48:53.781Z,0.70
2017-12-09T15:51:37.927Z,0.70
2017-12-09T15:57:09.112Z,0.60
2017-12-09T16:00:02.128Z,0.70
2017-12-09T16:05:26.522Z,0.60
2017-12-09T16:10:52.919Z,0.70
2017-12-09T16:14:01.870Z,0.60
2017-12-09T16:16:38.518Z,0.60
2017-12-09T16:19:26.902Z,0.60
2017-12-09T16:24:41.406Z,1.00
2017-12-09T16:30:36.024Z,0.70
2017-12-09T16:36:42.030Z,0.60
2017-12-09T16:39:17.540Z,0.60
2017-12-09T16:47:58.265Z,0.60
2017-12-09T16:50:48.265Z,0.60
2017-12-09T16:53:33.506Z,0.50
2017-12-09T16:56:19.876Z,0.60
2017-12-09T17:04:42.090Z,0.50
2017-12-09T17:07:37.919Z,0.60
2017-12-09T17:13:43.643Z,0.50
2017-12-09T17:19:46.351Z,0.50
2017-12-09T17:22:35.931Z,0.60
2017-12-09T17:25:18.581Z,0.50
2017-12-09T17:34:17.236Z,0.60
2017-12-09T17:37:06.159Z,0.60
2017-12-09T17:40:02.602Z,0.60
2017-12-09T17:43:09.621Z,0.70
2017-12-09T18:28:22.994Z,0.70
2017-12-09T18:34:50.233Z,0.60
2017-12-09T20:00:26.850Z,0.80
2017-12-09T20:06:27.008Z,0.80
2017-12-09T20:09:22.834Z,0.70
2017-12-09T20:12:20.246Z,0.80
2017-12-09T20:27:48.383Z,0.80
2017-12-09T20:30:27.552Z,0.80
2017-12-09T20:36:32.197Z,1.00
2017-12-09T20:41:53.084Z,0.90
2017-12-09T20:47:22.945Z,0.80
2017-12-09T20:50:15.587Z,0.80
2017-12-09T20:52:56.841Z,0.70
2017-12-09T21:31:35.851Z,0.70
2017-12-09T21:37:35.922Z,0.70
2017-12-09T21:43:22.056Z,0.80
2017-12-09T21:46:00.458Z,0.80
2017-12-09T21:48:59.980Z,0.80
2017-12-09T21:55:14.259Z,0.80
2017-12-09T21:58:10.814Z,0.80
2017-12-09T22:09:41.081Z,0.70
2017-12-09T22:18:12.156Z,0.90
2017-12-09T22:21:11.302Z,0.80
2017-12-09T22:24:29.200Z,0.80
2017-12-09T22:39:55.351Z,0.70
2017-12-09T22:43:17.523Z,0.70
